CST,Max TemperatureF,Mean TemperatureF,Min TemperatureF,Max Dew PointF,MeanDew PointF,Min DewpointF,Max Humidity, Mean Humidity, Min Humidity, Max Sea Level PressureIn, Mean Sea Level PressureIn, Min Sea Level PressureIn, Max VisibilityMiles, Mean VisibilityMiles, Min VisibilityMiles, Max Wind SpeedMPH, Mean Wind SpeedMPH, Max Gust SpeedMPH,PrecipitationIn, CloudCover, Events, WindDirDegrees
2013-11-1,74,62,49,61,52,43,100,68,35,29.94,29.87,29.84,10,7,0,12,3,18,0.00,1,Fog,319
2013-11-2,69,59,48,51,44,40,93,65,37,30.21,30.06,29.93,10,10,10,21,7,26,0.00,1,,337
2013-11-3,66,52,38,46,41,37,92,66,40,30.29,30.21,30.15,10,10,9,13,3,22,0.00,0,,67
2013-11-4,68,54,39,52,46,38,100,74,48,30.30,30.23,30.19,10,10,7,14,5,18,0.00,4,,116
2013-11-5,77,68,58,57,53,49,78,63,47,30.25,30.18,30.12,10,10,10,23,13,30,0.00,3,,126
2013-11-6,77,66,55,67,59,50,83,74,64,30.15,30.11,30.05,10,10,6,15,8,22,0.00,6,Rain,137
2013-11-7,61,52,42,53,40,36,93,67,40,30.36,30.31,30.17,10,10,6,20,12,35,T,4,,348
2013-11-8,63,49,34,43,37,33,92,64,36,30.38,30.30,30.22,10,10,6,14,4,20,0.00,2,,60
2013-11-9,65,55,45,51,45,41,93,71,48,30.29,30.25,30.20,10,10,10,9,3,,T,4,,14
2013-11-10,71,59,46,51,48,46,93,69,44,30.33,30.27,30.24,10,10,10,12,3,18,0.00,3,,13
2013-11-11,75,59,42,52,46,41,100,68,36,30.28,30.23,30.16,10,6,0,8,1,,0.00,0,Fog,22
2013-11-12,54,46,37,50,40,25,100,78,56,30.57,30.36,30.22,10,8,0,24,11,32,0.00,3,Fog,356
2013-11-13,55,42,29,28,23,17,85,55,24,30.62,30.53,30.44,10,10,10,18,8,25,0.00,0,,22
2013-11-14,63,44,24,40,31,21,88,60,32,30.42,30.30,30.17,10,10,10,15,5,21,0.00,2,,141
2013-11-15,67,59,50,58,51,39,100,80,59,30.15,30.09,30.02,10,8,2,7,4,,0.05,6,Rain,122
2013-11-16,76,67,57,66,63,56,100,85,69,30.07,30.00,29.94,10,9,5,17,10,22,T,8,,150
2013-11-17,79,74,68,71,69,66,100,87,74,29.95,29.90,29.83,10,8,3,21,9,25,T,7,Rain,181
2013-11-18,73,65,57,72,47,6,93,58,22,30.19,30.07,29.96,10,9,1,17,7,25,0.30,4,Rain,357
2013-11-19,61,50,39,36,29,25,60,44,28,30.24,30.16,30.11,10,10,10,14,8,21,0.00,3,,28
2013-11-20,69,52,34,48,38,30,89,62,35,30.15,30.11,30.05,10,10,10,12,4,17,0.00,0,,108
2013-11-21,73,62,51,60,55,48,93,80,66,30.22,30.18,30.12,10,9,7,15,9,20,0.00,6,,139
2013-11-22,67,62,57,64,61,55,100,94,87,30.27,30.22,30.16,10,6,1,16,6,54,0.84,8,Rain,17
2013-11-23,57,49,40,55,45,28,100,80,60,30.45,30.33,30.23,10,6,2,21,13,28,0.45,7,Rain,6
2013-11-24,48,40,32,27,22,18,70,51,31,30.52,30.43,30.35,10,10,10,22,11,29,0.00,2,,27
2013-11-25,44,40,36,43,37,21,100,76,52,30.36,30.14,30.00,10,5,1,13,6,16,3.87,7,Rain,37
2013-11-26,45,41,37,43,40,33,100,93,85,30.08,29.95,29.83,10,6,0,22,11,28,1.09,8,Rain,344
2013-11-27,41,34,27,33,24,20,85,65,44,30.42,30.27,30.10,10,10,10,23,11,30,0.00,2,,335
2013-11-28,50,37,23,28,22,14,96,60,24,30.50,30.46,30.41,10,10,10,6,1,9,0.00,2,,35
2013-11-29,58,41,24,31,25,20,92,58,23,30.56,30.49,30.44,10,10,10,8,1,10,0.00,0,,28
2013-11-30,64,45,25,34,28,23,85,54,22,30.48,30.36,30.27,10,10,8,8,1,,0.00,0,,165